sensor_id;sensor_type;location;lat;lon;timestamp;pressure;altitude;pressure_sealevel;temperature;humidity
67545;BME280;54380;47.770;11.150;2023-02-28T00:00:13;95161.94;;;-0.71;62.96
67545;BME280;54380;47.770;11.150;2023-02-28T00:02:41;95163.88;;;-0.73;62.87
67545;BME280;54380;47.770;11.150;2023-02-28T00:05:09;95160.84;;;-0.76;62.70
67545;BME280;54380;47.770;11.150;2023-02-28T00:07:37;95164.38;;;-0.77;62.91
67545;BME280;54380;47.770;11.150;2023-02-28T00:10:05;95163.75;;;-0.79;63.29
67545;BME280;54380;47.770;11.150;2023-02-28T00:12:34;95156.16;;;-0.81;63.06
67545;BME280;54380;47.770;11.150;2023-02-28T00:15:03;95162.31;;;-0.82;63.44
67545;BME280;54380;47.770;11.150;2023-02-28T00:17:31;95157.31;;;-0.83;63.11
67545;BME280;54380;47.770;11.150;2023-02-28T00:19:58;95163.16;;;-0.90;63.05
67545;BME280;54380;47.770;11.150;2023-02-28T00:22:39;95158.53;;;-0.94;63.47
67545;BME280;54380;47.770;11.150;2023-02-28T00:25:08;95161.63;;;-0.99;63.48
67545;BME280;54380;47.770;11.150;2023-02-28T00:27:35;95152.75;;;-1.04;64.01
67545;BME280;54380;47.770;11.150;2023-02-28T00:30:07;95162.47;;;-1.06;63.42
67545;BME280;54380;47.770;11.150;2023-02-28T00:32:36;95157.63;;;-1.09;63.28
67545;BME280;54380;47.770;11.150;2023-02-28T00:35:04;95149.41;;;-1.13;62.97
67545;BME280;54380;47.770;11.150;2023-02-28T00:37:31;95151.50;;;-1.17;62.07
67545;BME280;54380;47.770;11.150;2023-02-28T00:39:58;95143.78;;;-1.25;62.44
67545;BME280;54380;47.770;11.150;2023-02-28T00:42:26;95145.94;;;-1.28;62.44
67545;BME280;54380;47.770;11.150;2023-02-28T00:44:53;95138.03;;;-1.35;62.25
67545;BME280;54380;47.770;11.150;2023-02-28T00:47:21;95137.06;;;-1.42;61.44
67545;BME280;54380;47.770;11.150;2023-02-28T00:49:48;95141.69;;;-1.52;61.10
67545;BME280;54380;47.770;11.150;2023-02-28T00:52:15;95147.06;;;-1.62;62.43
67545;BME280;54380;47.770;11.150;2023-02-28T00:54:42;95143.50;;;-1.69;62.46
67545;BME280;54380;47.770;11.150;2023-02-28T00:57:08;95134.00;;;-1.77;62.47
67545;BME280;54380;47.770;11.150;2023-02-28T00:59:35;95132.09;;;-1.83;62.50
67545;BME280;54380;47.770;11.150;2023-02-28T01:02:02;95132.44;;;-1.86;63.39
67545;BME280;54380;47.770;11.150;2023-02-28T01:04:30;95135.16;;;-1.88;64.10
67545;BME280;54380;47.770;11.150;2023-02-28T01:07:00;95130.97;;;-1.89;64.46
67545;BME280;54380;47.770;11.150;2023-02-28T01:09:27;95130.78;;;-1.87;64.51
67545;BME280;54380;47.770;11.150;2023-02-28T01:11:54;95132.59;;;-1.88;65.29
67545;BME280;54380;47.770;11.150;2023-02-28T01:14:21;95133.56;;;-1.89;65.67
67545;BME280;54380;47.770;11.150;2023-02-28T01:16:48;95127.25;;;-1.86;65.92
67545;BME280;54380;47.770;11.150;2023-02-28T01:19:15;95130.50;;;-1.84;65.57
67545;BME280;54380;47.770;11.150;2023-02-28T01:21:44;95131.94;;;-1.82;65.62
67545;BME280;54380;47.770;11.150;2023-02-28T01:24:12;95125.59;;;-1.79;65.28
67545;BME280;54380;47.770;11.150;2023-02-28T01:26:39;95126.56;;;-1.80;65.15
67545;BME280;54380;47.770;11.150;2023-02-28T01:29:06;95132.88;;;-1.83;65.48
67545;BME280;54380;47.770;11.150;2023-02-28T01:31:33;95135.16;;;-1.88;65.57
67545;BME280;54380;47.770;11.150;2023-02-28T01:34:01;95133.91;;;-1.92;65.46
67545;BME280;54380;47.770;11.150;2023-02-28T01:36:28;95132.47;;;-1.94;65.14
67545;BME280;54380;47.770;11.150;2023-02-28T01:38:56;95122.41;;;-1.98;65.45
67545;BME280;54380;47.770;11.150;2023-02-28T01:41:25;95125.34;;;-2.01;65.21
67545;BME280;54380;47.770;11.150;2023-02-28T01:43:57;95122.13;;;-2.03;64.64
67545;BME280;54380;47.770;11.150;2023-02-28T01:46:25;95121.50;;;-2.05;64.56
67545;BME280;54380;47.770;11.150;2023-02-28T01:48:56;95116.00;;;-2.10;64.38
67545;BME280;54380;47.770;11.150;2023-02-28T01:51:29;95113.91;;;-2.14;63.95
67545;BME280;54380;47.770;11.150;2023-02-28T01:54:02;95116.97;;;-2.19;64.33
67545;BME280;54380;47.770;11.150;2023-02-28T01:56:33;95113.28;;;-2.25;64.37
67545;BME280;54380;47.770;11.150;2023-02-28T01:59:04;95101.03;;;-2.31;62.67
67545;BME280;54380;47.770;11.150;2023-02-28T02:01:31;95103.31;;;-2.44;61.53
67545;BME280;54380;47.770;11.150;2023-02-28T02:04:02;95099.63;;;-2.58;61.35
67545;BME280;54380;47.770;11.150;2023-02-28T02:09:01;95093.19;;;-2.78;60.69
67545;BME280;54380;47.770;11.150;2023-02-28T02:11:29;95096.56;;;-2.86;60.41
67545;BME280;54380;47.770;11.150;2023-02-28T02:14:14;95090.28;;;-2.92;61.81
67545;BME280;54380;47.770;11.150;2023-02-28T02:16:53;95083.00;;;-2.96;62.88
67545;BME280;54380;47.770;11.150;2023-02-28T02:19:39;95087.38;;;-2.97;63.01
67545;BME280;54380;47.770;11.150;2023-02-28T02:22:21;95080.91;;;-3.01;62.90
67545;BME280;54380;47.770;11.150;2023-02-28T02:25:17;95076.84;;;-3.03;63.89
67545;BME280;54380;47.770;11.150;2023-02-28T02:27:59;95072.81;;;-3.06;63.89
67545;BME280;54380;47.770;11.150;2023-02-28T02:30:48;95073.81;;;-3.07;64.70
67545;BME280;54380;47.770;11.150;2023-02-28T02:33:34;95071.03;;;-3.05;64.50
67545;BME280;54380;47.770;11.150;2023-02-28T02:36:14;95082.03;;;-3.03;64.64
67545;BME280;54380;47.770;11.150;2023-02-28T02:38:50;95073.63;;;-3.05;64.75
67545;BME280;54380;47.770;11.150;2023-02-28T02:41:23;95070.25;;;-3.06;64.65
67545;BME280;54380;47.770;11.150;2023-02-28T02:43:56;95076.38;;;-3.07;65.62
67545;BME280;54380;47.770;11.150;2023-02-28T02:46:32;95072.19;;;-3.08;66.11
67545;BME280;54380;47.770;11.150;2023-02-28T02:49:03;95074.47;;;-3.05;66.55
67545;BME280;54380;47.770;11.150;2023-02-28T02:51:36;95076.72;;;-3.02;66.85
67545;BME280;54380;47.770;11.150;2023-02-28T02:54:08;95071.38;;;-3.00;66.54
67545;BME280;54380;47.770;11.150;2023-02-28T02:56:40;95075.59;;;-2.99;66.81
67545;BME280;54380;47.770;11.150;2023-02-28T02:59:11;95078.97;;;-2.99;66.64
67545;BME280;54380;47.770;11.150;2023-02-28T03:01:40;95073.00;;;-2.99;66.87
67545;BME280;54380;47.770;11.150;2023-02-28T03:04:10;95075.59;;;-2.99;66.75
67545;BME280;54380;47.770;11.150;2023-02-28T03:06:39;95077.03;;;-2.97;66.93
67545;BME280;54380;47.770;11.150;2023-02-28T03:09:06;95077.69;;;-2.95;67.12
67545;BME280;54380;47.770;11.150;2023-02-28T03:11:35;95078.31;;;-2.93;67.01
67545;BME280;54380;47.770;11.150;2023-02-28T03:14:15;95077.19;;;-2.90;66.48
67545;BME280;54380;47.770;11.150;2023-02-28T03:19:45;95083.31;;;-2.91;65.71
67545;BME280;54380;47.770;11.150;2023-02-28T03:22:23;95080.91;;;-2.93;66.47
67545;BME280;54380;47.770;11.150;2023-02-28T03:24:56;95084.47;;;-2.94;66.48
67545;BME280;54380;47.770;11.150;2023-02-28T03:27:28;95080.41;;;-2.96;65.80
67545;BME280;54380;47.770;11.150;2023-02-28T03:30:01;95082.19;;;-2.97;65.80
67545;BME280;54380;47.770;11.150;2023-02-28T03:32:33;95092.69;;;-2.98;64.99
67545;BME280;54380;47.770;11.150;2023-02-28T03:35:05;95093.16;;;-3.03;64.10
67545;BME280;54380;47.770;11.150;2023-02-28T03:37:37;95091.56;;;-3.12;64.69
67545;BME280;54380;47.770;11.150;2023-02-28T03:40:08;95093.16;;;-3.19;65.92
67545;BME280;54380;47.770;11.150;2023-02-28T03:42:41;95099.63;;;-3.23;66.56
67545;BME280;54380;47.770;11.150;2023-02-28T03:45:20;95091.56;;;-3.20;65.66
67545;BME280;54380;47.770;11.150;2023-02-28T03:47:51;95099.44;;;-3.22;65.51
67545;BME280;54380;47.770;11.150;2023-02-28T03:50:21;95104.78;;;-3.23;65.39
67545;BME280;54380;47.770;11.150;2023-02-28T03:52:56;95102.66;;;-3.28;64.60
67545;BME280;54380;47.770;11.150;2023-02-28T03:55:32;95103.47;;;-3.36;65.48
67545;BME280;54380;47.770;11.150;2023-02-28T03:58:04;95115.06;;;-3.40;63.79
67545;BME280;54380;47.770;11.150;2023-02-28T04:00:37;95112.31;;;-3.46;65.33
67545;BME280;54380;47.770;11.150;2023-02-28T04:03:06;95111.84;;;-3.50;65.50
67545;BME280;54380;47.770;11.150;2023-02-28T04:05:33;95117.13;;;-3.51;66.01
67545;BME280;54380;47.770;11.150;2023-02-28T04:08:11;95122.97;;;-3.49;65.70
67545;BME280;54380;47.770;11.150;2023-02-28T04:10:39;95131.50;;;-3.49;65.48
67545;BME280;54380;47.770;11.150;2023-02-28T04:13:06;95130.69;;;-3.49;65.63
67545;BME280;54380;47.770;11.150;2023-02-28T04:15:33;95122.31;;;-3.51;66.15
67545;BME280;54380;47.770;11.150;2023-02-28T04:17:59;95131.81;;;-3.52;65.95
67545;BME280;54380;47.770;11.150;2023-02-28T04:20:26;95137.94;;;-3.53;65.32
67545;BME280;54380;47.770;11.150;2023-02-28T04:22:52;95138.91;;;-3.54;64.71
67545;BME280;54380;47.770;11.150;2023-02-28T04:25:20;95144.84;;;-3.62;65.02
67545;BME280;54380;47.770;11.150;2023-02-28T04:27:48;95141.25;;;-3.69;65.70
67545;BME280;54380;47.770;11.150;2023-02-28T04:30:15;95145.63;;;-3.69;65.70
67545;BME280;54380;47.770;11.150;2023-02-28T04:32:42;95144.69;;;-3.68;65.03
67545;BME280;54380;47.770;11.150;2023-02-28T04:35:09;95148.19;;;-3.69;65.22
67545;BME280;54380;47.770;11.150;2023-02-28T04:37:37;95147.72;;;-3.73;64.48
67545;BME280;54380;47.770;11.150;2023-02-28T04:40:05;95137.06;;;-3.78;63.69
67545;BME280;54380;47.770;11.150;2023-02-28T04:42:34;95140.41;;;-3.86;63.37
67545;BME280;54380;47.770;11.150;2023-02-28T04:45:02;95140.50;;;-3.95;62.12
67545;BME280;54380;47.770;11.150;2023-02-28T04:47:30;95137.22;;;-4.06;61.90
67545;BME280;54380;47.770;11.150;2023-02-28T04:49:57;95141.25;;;-4.11;63.52
67545;BME280;54380;47.770;11.150;2023-02-28T04:52:24;95141.56;;;-4.14;63.71
67545;BME280;54380;47.770;11.150;2023-02-28T04:54:50;95146.72;;;-4.14;64.60
67545;BME280;54380;47.770;11.150;2023-02-28T04:57:17;95142.53;;;-4.15;64.20
67545;BME280;54380;47.770;11.150;2023-02-28T04:59:45;95149.59;;;-4.17;65.04
67545;BME280;54380;47.770;11.150;2023-02-28T05:02:12;95140.25;;;-4.18;64.58
67545;BME280;54380;47.770;11.150;2023-02-28T05:04:39;95142.00;;;-4.19;64.86
67545;BME280;54380;47.770;11.150;2023-02-28T05:07:05;95149.72;;;-4.19;63.76
67545;BME280;54380;47.770;11.150;2023-02-28T05:09:32;95163.72;;;-4.22;63.74
67545;BME280;54380;47.770;11.150;2023-02-28T05:11:59;95166.94;;;-4.28;64.63
67545;BME280;54380;47.770;11.150;2023-02-28T05:14:27;95166.94;;;-4.28;65.21
67545;BME280;54380;47.770;11.150;2023-02-28T05:16:55;95161.28;;;-4.31;64.77
67545;BME280;54380;47.770;11.150;2023-02-28T05:19:22;95167.69;;;-4.35;64.45
67545;BME280;54380;47.770;11.150;2023-02-28T05:21:50;95170.44;;;-4.37;64.63
67545;BME280;54380;47.770;11.150;2023-02-28T05:24:18;95163.63;;;-4.38;63.69
67545;BME280;54380;47.770;11.150;2023-02-28T05:26:50;95168.28;;;-4.42;62.59
67545;BME280;54380;47.770;11.150;2023-02-28T05:29:18;95171.44;;;-4.48;61.65
67545;BME280;54380;47.770;11.150;2023-02-28T05:31:45;95167.88;;;-4.55;62.04
67545;BME280;54380;47.770;11.150;2023-02-28T05:34:13;95167.53;;;-4.60;61.91
67545;BME280;54380;47.770;11.150;2023-02-28T05:36:42;95171.50;;;-4.66;62.33
67545;BME280;54380;47.770;11.150;2023-02-28T05:39:08;95175.63;;;-4.73;61.21
67545;BME280;54380;47.770;11.150;2023-02-28T05:41:40;95169.75;;;-4.83;59.72
67545;BME280;54380;47.770;11.150;2023-02-28T05:44:07;95172.38;;;-4.93;59.51
67545;BME280;54380;47.770;11.150;2023-02-28T05:46:34;95171.94;;;-5.06;58.39
67545;BME280;54380;47.770;11.150;2023-02-28T05:49:01;95175.72;;;-5.18;59.28
67545;BME280;54380;47.770;11.150;2023-02-28T05:51:29;95180.63;;;-5.25;59.03
67545;BME280;54380;47.770;11.150;2023-02-28T05:54:00;95181.88;;;-5.29;60.91
67545;BME280;54380;47.770;11.150;2023-02-28T05:56:28;95182.53;;;-5.27;61.66
67545;BME280;54380;47.770;11.150;2023-02-28T05:58:54;95194.81;;;-5.21;61.80
67545;BME280;54380;47.770;11.150;2023-02-28T06:01:32;95194.38;;;-5.16;61.36
67545;BME280;54380;47.770;11.150;2023-02-28T06:03:59;95192.63;;;-5.16;62.38
67545;BME280;54380;47.770;11.150;2023-02-28T06:06:26;95193.94;;;-5.12;61.75
67545;BME280;54380;47.770;11.150;2023-02-28T06:08:55;95201.38;;;-5.09;60.51
67545;BME280;54380;47.770;11.150;2023-02-28T06:11:22;95193.28;;;-5.14;59.60
67545;BME280;54380;47.770;11.150;2023-02-28T06:13:54;95209.97;;;-5.18;61.18
67545;BME280;54380;47.770;11.150;2023-02-28T06:16:22;95209.81;;;-5.16;62.30
67545;BME280;54380;47.770;11.150;2023-02-28T06:18:49;95215.06;;;-5.08;61.72
67545;BME280;54380;47.770;11.150;2023-02-28T06:21:15;95217.03;;;-5.02;61.69
67545;BME280;54380;47.770;11.150;2023-02-28T06:23:42;95219.47;;;-5.00;60.91
67545;BME280;54380;47.770;11.150;2023-02-28T06:26:11;95220.94;;;-4.98;59.95
67545;BME280;54380;47.770;11.150;2023-02-28T06:28:38;95225.56;;;-5.01;60.57
67545;BME280;54380;47.770;11.150;2023-02-28T06:31:09;95235.75;;;-5.00;60.96
67545;BME280;54380;47.770;11.150;2023-02-28T06:33:36;95229.19;;;-4.94;62.07
67545;BME280;54380;47.770;11.150;2023-02-28T06:36:04;95235.34;;;-4.87;62.03
67545;BME280;54380;47.770;11.150;2023-02-28T06:38:31;95236.94;;;-4.76;62.19
67545;BME280;54380;47.770;11.150;2023-02-28T06:40:59;95237.50;;;-4.65;62.82
67545;BME280;54380;47.770;11.150;2023-02-28T06:43:30;95239.84;;;-4.53;62.16
67545;BME280;54380;47.770;11.150;2023-02-28T06:45:59;95234.75;;;-4.45;61.25
67545;BME280;54380;47.770;11.150;2023-02-28T06:48:27;95245.59;;;-4.42;61.85
67545;BME280;54380;47.770;11.150;2023-02-28T06:51:03;95243.38;;;-4.36;61.24
67545;BME280;54380;47.770;11.150;2023-02-28T06:53:30;95236.16;;;-4.33;61.84
67545;BME280;54380;47.770;11.150;2023-02-28T06:55:57;95241.22;;;-4.23;62.01
67545;BME280;54380;47.770;11.150;2023-02-28T06:58:23;95242.09;;;-4.14;61.56
67545;BME280;54380;47.770;11.150;2023-02-28T07:00:52;95239.72;;;-4.08;61.45
67545;BME280;54380;47.770;11.150;2023-02-28T07:03:20;95247.66;;;-4.01;62.18
67545;BME280;54380;47.770;11.150;2023-02-28T07:05:47;95250.28;;;-3.93;61.36
67545;BME280;54380;47.770;11.150;2023-02-28T07:08:14;95250.63;;;-3.88;61.00
67545;BME280;54380;47.770;11.150;2023-02-28T07:10:41;95251.00;;;-3.83;61.14
67545;BME280;54380;47.770;11.150;2023-02-28T07:13:08;95254.91;;;-3.79;61.20
67545;BME280;54380;47.770;11.150;2023-02-28T07:15:36;95254.28;;;-3.72;61.15
67545;BME280;54380;47.770;11.150;2023-02-28T07:18:08;95264.50;;;-3.63;61.45
67545;BME280;54380;47.770;11.150;2023-02-28T07:20:35;95260.31;;;-3.56;61.15
67545;BME280;54380;47.770;11.150;2023-02-28T07:23:02;95263.25;;;-3.50;61.37
67545;BME280;54380;47.770;11.150;2023-02-28T07:25:29;95267.03;;;-3.45;61.15
67545;BME280;54380;47.770;11.150;2023-02-28T07:27:55;95270.09;;;-3.41;61.35
67545;BME280;54380;47.770;11.150;2023-02-28T07:30:22;95272.22;;;-3.37;62.15
67545;BME280;54380;47.770;11.150;2023-02-28T07:32:49;95261.72;;;-3.35;62.45
67545;BME280;54380;47.770;11.150;2023-02-28T07:35:17;95268.03;;;-3.29;62.76
67545;BME280;54380;47.770;11.150;2023-02-28T07:37:44;95266.78;;;-3.25;63.12
67545;BME280;54380;47.770;11.150;2023-02-28T07:40:12;95262.59;;;-3.18;63.34
67545;BME280;54380;47.770;11.150;2023-02-28T07:42:40;95264.59;;;-3.04;63.27
67545;BME280;54380;47.770;11.150;2023-02-28T07:45:09;95274.63;;;-2.93;63.81
67545;BME280;54380;47.770;11.150;2023-02-28T07:47:37;95266.59;;;-2.90;63.44
67545;BME280;54380;47.770;11.150;2023-02-28T07:50:05;95264.31;;;-2.84;63.55
67545;BME280;54380;47.770;11.150;2023-02-28T07:52:34;95265.75;;;-2.82;63.60
67545;BME280;54380;47.770;11.150;2023-02-28T07:55:00;95264.19;;;-2.75;63.67
67545;BME280;54380;47.770;11.150;2023-02-28T07:57:27;95267.28;;;-2.71;63.44
67545;BME280;54380;47.770;11.150;2023-02-28T07:59:54;95263.84;;;-2.72;63.38
67545;BME280;54380;47.770;11.150;2023-02-28T08:02:21;95281.00;;;-2.71;63.70
67545;BME280;54380;47.770;11.150;2023-02-28T08:04:48;95268.88;;;-2.70;63.72
67545;BME280;54380;47.770;11.150;2023-02-28T08:07:16;95269.88;;;-2.63;63.80
67545;BME280;54380;47.770;11.150;2023-02-28T08:09:45;95265.66;;;-2.56;63.70
67545;BME280;54380;47.770;11.150;2023-02-28T08:12:11;95264.72;;;-2.55;63.46
67545;BME280;54380;47.770;11.150;2023-02-28T08:14:38;95278.25;;;-2.53;63.47
67545;BME280;54380;47.770;11.150;2023-02-28T08:17:06;95280.53;;;-2.50;63.39
67545;BME280;54380;47.770;11.150;2023-02-28T08:19:33;95276.81;;;-2.55;63.04
67545;BME280;54380;47.770;11.150;2023-02-28T08:21:59;95278.56;;;-2.56;63.31
67545;BME280;54380;47.770;11.150;2023-02-28T08:24:26;95287.63;;;-2.60;63.20
67545;BME280;54380;47.770;11.150;2023-02-28T08:26:55;95281.94;;;-2.63;63.08
67545;BME280;54380;47.770;11.150;2023-02-28T08:29:21;95281.94;;;-2.72;63.28
67545;BME280;54380;47.770;11.150;2023-02-28T08:31:49;95282.13;;;-2.73;63.51
67545;BME280;54380;47.770;11.150;2023-02-28T08:34:16;95285.19;;;-2.70;63.43
67545;BME280;54380;47.770;11.150;2023-02-28T08:36:43;95287.75;;;-2.70;63.81
67545;BME280;54380;47.770;11.150;2023-02-28T08:39:11;95286.66;;;-2.67;63.87
67545;BME280;54380;47.770;11.150;2023-02-28T08:41:38;95286.00;;;-2.61;63.72
67545;BME280;54380;47.770;11.150;2023-02-28T08:44:06;95286.97;;;-2.62;63.80
67545;BME280;54380;47.770;11.150;2023-02-28T08:46:33;95282.00;;;-2.55;63.67
67545;BME280;54380;47.770;11.150;2023-02-28T08:49:00;95286.34;;;-2.48;63.51
67545;BME280;54380;47.770;11.150;2023-02-28T08:51:28;95291.69;;;-2.41;63.82
67545;BME280;54380;47.770;11.150;2023-02-28T08:53:58;95281.38;;;-2.33;63.50
67545;BME280;54380;47.770;11.150;2023-02-28T08:56:26;95291.22;;;-2.28;63.47
67545;BME280;54380;47.770;11.150;2023-02-28T08:58:54;95283.81;;;-2.23;63.52
67545;BME280;54380;47.770;11.150;2023-02-28T09:01:25;95287.03;;;-2.13;63.22
67545;BME280;54380;47.770;11.150;2023-02-28T09:03:54;95284.94;;;-2.09;63.09
67545;BME280;54380;47.770;11.150;2023-02-28T09:06:23;95296.41;;;-2.04;63.00
67545;BME280;54380;47.770;11.150;2023-02-28T09:08:51;95294.78;;;-1.96;62.66
67545;BME280;54380;47.770;11.150;2023-02-28T09:11:19;95303.84;;;-1.84;62.76
67545;BME280;54380;47.770;11.150;2023-02-28T09:13:45;95298.66;;;-1.76;62.78
67545;BME280;54380;47.770;11.150;2023-02-28T09:16:14;95307.06;;;-1.66;62.47
67545;BME280;54380;47.770;11.150;2023-02-28T09:18:42;95308.19;;;-1.60;62.34
67545;BME280;54380;47.770;11.150;2023-02-28T09:21:12;95306.72;;;-1.55;62.18
67545;BME280;54380;47.770;11.150;2023-02-28T09:23:44;95311.53;;;-1.43;62.39
67545;BME280;54380;47.770;11.150;2023-02-28T09:26:14;95314.44;;;-1.38;61.84
67545;BME280;54380;47.770;11.150;2023-02-28T09:28:41;95315.56;;;-1.33;62.09
67545;BME280;54380;47.770;11.150;2023-02-28T09:31:12;95320.06;;;-1.26;62.03
67545;BME280;54380;47.770;11.150;2023-02-28T09:33:39;95320.88;;;-1.18;62.09
67545;BME280;54380;47.770;11.150;2023-02-28T09:36:07;95320.50;;;-1.06;61.98
67545;BME280;54380;47.770;11.150;2023-02-28T09:38:34;95321.78;;;-0.94;61.79
67545;BME280;54380;47.770;11.150;2023-02-28T09:41:08;95322.50;;;-0.77;62.26
67545;BME280;54380;47.770;11.150;2023-02-28T09:43:40;95324.22;;;-0.61;61.43
67545;BME280;54380;47.770;11.150;2023-02-28T09:46:18;95323.50;;;-0.47;61.30
67545;BME280;54380;47.770;11.150;2023-02-28T09:48:48;95327.50;;;-0.36;61.31
67545;BME280;54380;47.770;11.150;2023-02-28T09:51:28;95329.03;;;-0.27;60.91
67545;BME280;54380;47.770;11.150;2023-02-28T09:53:57;95331.94;;;-0.22;60.63
67545;BME280;54380;47.770;11.150;2023-02-28T09:56:32;95332.06;;;-0.15;60.31
67545;BME280;54380;47.770;11.150;2023-02-28T09:59:02;95338.84;;;-0.14;60.04
67545;BME280;54380;47.770;11.150;2023-02-28T10:01:37;95348.53;;;-0.08;60.24
67545;BME280;54380;47.770;11.150;2023-02-28T10:04:09;95347.50;;;0.01;60.23
67545;BME280;54380;47.770;11.150;2023-02-28T10:06:44;95352.47;;;0.11;59.71
67545;BME280;54380;47.770;11.150;2023-02-28T10:09:16;95353.09;;;0.13;59.16
67545;BME280;54380;47.770;11.150;2023-02-28T10:11:44;95354.59;;;0.07;58.87
67545;BME280;54380;47.770;11.150;2023-02-28T10:14:19;95355.94;;;0.03;59.06
67545;BME280;54380;47.770;11.150;2023-02-28T10:16:49;95360.66;;;-0.01;59.28
67545;BME280;54380;47.770;11.150;2023-02-28T10:19:22;95355.47;;;-0.01;58.96
67545;BME280;54380;47.770;11.150;2023-02-28T10:21:56;95357.91;;;0.01;59.34
67545;BME280;54380;47.770;11.150;2023-02-28T10:24:31;95367.41;;;0.09;59.09
67545;BME280;54380;47.770;11.150;2023-02-28T10:27:01;95371.44;;;0.11;58.82
67545;BME280;54380;47.770;11.150;2023-02-28T10:29:32;95362.56;;;0.06;58.89
67545;BME280;54380;47.770;11.150;2023-02-28T10:32:01;95366.31;;;0.03;59.02
67545;BME280;54380;47.770;11.150;2023-02-28T10:34:28;95364.34;;;0.05;59.53
67545;BME280;54380;47.770;11.150;2023-02-28T10:36:58;95369.03;;;0.10;59.19
67545;BME280;54380;47.770;11.150;2023-02-28T10:39:35;95362.03;;;0.10;59.19
67545;BME280;54380;47.770;11.150;2023-02-28T10:42:19;95372.25;;;0.12;59.27
67545;BME280;54380;47.770;11.150;2023-02-28T10:44:46;95367.88;;;0.12;58.63
67545;BME280;54380;47.770;11.150;2023-02-28T10:47:15;95370.47;;;0.12;58.58
67545;BME280;54380;47.770;11.150;2023-02-28T10:49:47;95366.06;;;0.13;58.71
67545;BME280;54380;47.770;11.150;2023-02-28T10:52:33;95364.91;;;0.15;58.43
67545;BME280;54380;47.770;11.150;2023-02-28T10:55:15;95369.16;;;0.16;58.74
67545;BME280;54380;47.770;11.150;2023-02-28T10:57:42;95370.75;;;0.17;58.58
67545;BME280;54380;47.770;11.150;2023-02-28T11:00:14;95375.16;;;0.17;59.13
67545;BME280;54380;47.770;11.150;2023-02-28T11:02:41;95375.94;;;0.17;58.55
67545;BME280;54380;47.770;11.150;2023-02-28T11:05:28;95371.19;;;0.21;58.43
67545;BME280;54380;47.770;11.150;2023-02-28T11:07:58;95375.16;;;0.17;58.77
67545;BME280;54380;47.770;11.150;2023-02-28T11:10:28;95377.22;;;0.21;59.16
67545;BME280;54380;47.770;11.150;2023-02-28T11:12:57;95377.16;;;0.30;59.33
67545;BME280;54380;47.770;11.150;2023-02-28T11:15:28;95371.09;;;0.37;58.87
67545;BME280;54380;47.770;11.150;2023-02-28T11:17:57;95375.13;;;0.40;58.43
67545;BME280;54380;47.770;11.150;2023-02-28T11:20:28;95368.66;;;0.36;58.17
67545;BME280;54380;47.770;11.150;2023-02-28T11:22:58;95377.09;;;0.38;58.49
67545;BME280;54380;47.770;11.150;2023-02-28T11:25:27;95376.66;;;0.34;58.20
67545;BME280;54380;47.770;11.150;2023-02-28T11:27:57;95375.66;;;0.35;58.56
67545;BME280;54380;47.770;11.150;2023-02-28T11:30:34;95366.25;;;0.34;58.46
67545;BME280;54380;47.770;11.150;2023-02-28T11:33:18;95370.75;;;0.40;58.84
67545;BME280;54380;47.770;11.150;2023-02-28T11:35:48;95367.16;;;0.41;58.82
67545;BME280;54380;47.770;11.150;2023-02-28T11:38:20;95373.00;;;0.43;58.36
67545;BME280;54380;47.770;11.150;2023-02-28T11:40:51;95367.91;;;0.50;58.59
67545;BME280;54380;47.770;11.150;2023-02-28T11:43:33;95367.84;;;0.58;58.89
67545;BME280;54380;47.770;11.150;2023-02-28T11:46:15;95366.78;;;0.68;58.46
67545;BME280;54380;47.770;11.150;2023-02-28T11:48:54;95363.44;;;0.74;58.31
67545;BME280;54380;47.770;11.150;2023-02-28T11:51:28;95366.16;;;0.80;58.22
67545;BME280;54380;47.770;11.150;2023-02-28T11:57:00;95362.25;;;0.84;58.23
67545;BME280;54380;47.770;11.150;2023-02-28T11:59:42;95364.28;;;0.89;58.08
67545;BME280;54380;47.770;11.150;2023-02-28T12:02:24;95367.16;;;0.94;57.90
67545;BME280;54380;47.770;11.150;2023-02-28T12:05:15;95358.19;;;0.97;58.08
67545;BME280;54380;47.770;11.150;2023-02-28T12:07:54;95372.19;;;0.96;57.31
67545;BME280;54380;47.770;11.150;2023-02-28T12:10:26;95370.75;;;0.93;57.90
67545;BME280;54380;47.770;11.150;2023-02-28T12:13:08;95367.00;;;0.96;57.49
67545;BME280;54380;47.770;11.150;2023-02-28T12:15:52;95365.38;;;0.95;57.29
67545;BME280;54380;47.770;11.150;2023-02-28T12:18:34;95362.25;;;0.84;57.20
67545;BME280;54380;47.770;11.150;2023-02-28T12:21:13;95366.59;;;0.84;57.59
67545;BME280;54380;47.770;11.150;2023-02-28T12:24:15;95363.41;;;0.82;57.67
67545;BME280;54380;47.770;11.150;2023-02-28T12:26:51;95357.03;;;0.84;57.32
67545;BME280;54380;47.770;11.150;2023-02-28T12:29:23;95362.25;;;0.84;57.67
67545;BME280;54380;47.770;11.150;2023-02-28T12:31:53;95366.28;;;0.87;57.49
67545;BME280;54380;47.770;11.150;2023-02-28T12:34:25;95357.84;;;0.85;57.59
67545;BME280;54380;47.770;11.150;2023-02-28T12:36:54;95356.22;;;0.84;57.37
67545;BME280;54380;47.770;11.150;2023-02-28T12:39:25;95350.22;;;0.83;57.56
67545;BME280;54380;47.770;11.150;2023-02-28T12:41:58;95352.81;;;0.83;56.96
67545;BME280;54380;47.770;11.150;2023-02-28T12:44:29;95351.72;;;0.78;57.26
67545;BME280;54380;47.770;11.150;2023-02-28T12:46:59;95351.91;;;0.76;57.26
67545;BME280;54380;47.770;11.150;2023-02-28T12:49:31;95340.91;;;0.74;57.62
67545;BME280;54380;47.770;11.150;2023-02-28T12:52:00;95344.94;;;0.77;57.68
67545;BME280;54380;47.770;11.150;2023-02-28T12:54:32;95338.22;;;0.82;58.09
67545;BME280;54380;47.770;11.150;2023-02-28T12:57:08;95344.50;;;0.88;57.64
67545;BME280;54380;47.770;11.150;2023-02-28T12:59:39;95341.53;;;0.91;57.01
67545;BME280;54380;47.770;11.150;2023-02-28T13:05:26;95342.69;;;0.88;57.92
67545;BME280;54380;47.770;11.150;2023-02-28T13:10:57;95341.63;;;0.83;57.68
67545;BME280;54380;47.770;11.150;2023-02-28T13:13:27;95340.44;;;0.85;57.47
67545;BME280;54380;47.770;11.150;2023-02-28T13:15:58;95342.06;;;0.86;57.40
67545;BME280;54380;47.770;11.150;2023-02-28T13:18:32;95340.38;;;0.94;57.76
67545;BME280;54380;47.770;11.150;2023-02-28T13:21:03;95340.47;;;1.00;57.69
67545;BME280;54380;47.770;11.150;2023-02-28T13:23:58;95340.91;;;1.04;57.43